Time;durP1;ratioP1;P1;durP2;ratioP2;P2;SDS_P1;SDS_P2;PMS_P1;PMS_P2;Temp;Humidity;BMP_temperature;BMP_pressure;BME280_temperature;BME280_humidity;BME280_pressure;Samples;Min_cycle;Max_cycle;Signal;HPM_P1;HPM_P2
2023/06/26 00:00:03;;;;;;;10.95;2.78;;;;;;;;;;5028833;28;20072;-65
2023/06/26 00:02:32;;;;;;;11.05;2.40;;;;;;;;;;5044867;28;20147;-65
2023/06/26 00:05:02;;;;;;;10.18;2.33;;;;;;;;;;5023158;28;20209;-67
2023/06/26 00:07:30;;;;;;;10.57;2.53;;;;;;;;;;5017807;28;20048;-65
2023/06/26 00:09:59;;;;;;;8.98;2.60;;;;;;;;;;5032534;28;20612;-64
2023/06/26 00:12:26;;;;;;;8.70;2.60;;;;;;;;;;5021885;28;20434;-65
2023/06/26 00:14:56;;;;;;;8.93;2.40;;;;;;;;;;5035615;28;20125;-65
2023/06/26 00:17:25;;;;;;;10.50;2.95;;;;;;;;;;5037897;28;20067;-65
2023/06/26 00:19:53;;;;;;;10.30;2.70;;;;;;;;;;5033708;28;20099;-65
2023/06/26 00:22:22;;;;;;;9.55;2.17;;;;;;;;;;5033312;28;20114;-65
2023/06/26 00:24:50;;;;;;;9.85;2.20;;;;;;;;;;5022831;28;20071;-66
2023/06/26 00:27:17;;;;;;;11.70;3.05;;;;;;;;;;5017863;28;20028;-65
2023/06/26 00:29:45;;;;;;;11.15;2.70;;;;;;;;;;5033255;28;20040;-67
2023/06/26 00:32:14;;;;;;;10.17;3.30;;;;;;;;;;5037837;28;20055;-65
2023/06/26 00:34:42;;;;;;;8.23;2.40;;;;;;;;;;5031196;28;20036;-66
2023/06/26 00:37:10;;;;;;;8.25;2.45;;;;;;;;;;5035280;28;20767;-65
2023/06/26 00:39:38;;;;;;;9.73;2.20;;;;;;;;;;5033258;28;20486;-65
2023/06/26 00:42:06;;;;;;;12.38;3.33;;;;;;;;;;5033878;28;20037;-65
2023/06/26 00:44:35;;;;;;;11.57;3.10;;;;;;;;;;5028510;28;20120;-66
2023/06/26 00:47:03;;;;;;;10.25;2.50;;;;;;;;;;5037453;28;21059;-65
2023/06/26 00:49:32;;;;;;;8.88;2.72;;;;;;;;;;5030724;28;20235;-65
2023/06/26 00:52:01;;;;;;;9.70;2.28;;;;;;;;;;5043113;28;20043;-65
2023/06/26 00:54:28;;;;;;;7.53;2.50;;;;;;;;;;5033702;28;20044;-64
2023/06/26 00:56:56;;;;;;;9.20;2.67;;;;;;;;;;5037085;28;20053;-65
2023/06/26 00:59:24;;;;;;;14.63;2.75;;;;;;;;;;5028988;28;20041;-66
2023/06/26 01:01:52;;;;;;;10.70;3.10;;;;;;;;;;5046421;28;20032;-66
2023/06/26 01:04:19;;;;;;;10.60;2.25;;;;;;;;;;5022390;28;20037;-66
2023/06/26 01:06:49;;;;;;;8.00;2.80;;;;;;;;;;5007282;28;20041;-65
2023/06/26 01:09:18;;;;;;;11.40;2.77;;;;;;;;;;5033438;28;20040;-66
2023/06/26 01:11:47;;;;;;;10.75;3.00;;;;;;;;;;5036993;28;20521;-66
2023/06/26 01:14:15;;;;;;;11.75;2.80;;;;;;;;;;5039022;28;20044;-67
2023/06/26 01:16:47;;;;;;;11.43;3.17;;;;;;;;;;5024373;28;20380;-66
2023/06/26 01:19:24;;;;;;;10.70;2.85;;;;;;;;;;5027686;28;20491;-65
2023/06/26 01:21:58;;;;;;;12.27;2.70;;;;;;;;;;5015729;28;20067;-66
2023/06/26 01:24:28;;;;;;;10.20;2.70;;;;;;;;;;5046081;28;20053;-65
2023/06/26 01:27:00;;;;;;;13.38;3.22;;;;;;;;;;5003227;28;20121;-65
2023/06/26 01:29:29;;;;;;;10.15;2.60;;;;;;;;;;5038054;28;20041;-65
2023/06/26 01:31:57;;;;;;;11.10;3.15;;;;;;;;;;5027372;28;20049;-65
2023/06/26 01:34:26;;;;;;;10.13;2.30;;;;;;;;;;5032677;28;20498;-65
2023/06/26 01:36:55;;;;;;;15.10;3.35;;;;;;;;;;5029961;28;20044;-65
2023/06/26 01:39:22;;;;;;;8.68;2.88;;;;;;;;;;5025936;28;20397;-65
2023/06/26 01:41:50;;;;;;;11.60;2.75;;;;;;;;;;5041367;28;20520;-66
2023/06/26 01:44:27;;;;;;;9.05;2.67;;;;;;;;;;4997443;28;20450;-66
2023/06/26 01:47:00;;;;;;;13.40;2.60;;;;;;;;;;5031238;28;20033;-66
2023/06/26 01:49:32;;;;;;;7.75;2.53;;;;;;;;;;5009282;28;20040;-66
2023/06/26 01:52:03;;;;;;;10.13;2.47;;;;;;;;;;5041544;28;20037;-65
2023/06/26 01:54:34;;;;;;;9.52;3.00;;;;;;;;;;5028792;28;20113;-65
2023/06/26 01:57:02;;;;;;;11.80;3.05;;;;;;;;;;5035488;28;20069;-60
2023/06/26 01:59:35;;;;;;;9.73;2.50;;;;;;;;;;5013419;28;20691;-65
2023/06/26 02:02:02;;;;;;;9.15;2.70;;;;;;;;;;5040784;28;20036;-65
2023/06/26 02:04:30;;;;;;;10.73;2.75;;;;;;;;;;5035399;28;20063;-65
2023/06/26 02:06:58;;;;;;;8.75;2.58;;;;;;;;;;5018598;28;20037;-66
2023/06/26 02:09:25;;;;;;;8.93;2.70;;;;;;;;;;5029191;28;20045;-66
2023/06/26 02:11:53;;;;;;;11.57;3.20;;;;;;;;;;5034140;28;20044;-67
2023/06/26 02:14:21;;;;;;;8.93;3.22;;;;;;;;;;5020793;28;20049;-66
2023/06/26 02:16:50;;;;;;;13.00;3.13;;;;;;;;;;5033617;28;20040;-65
2023/06/26 02:19:21;;;;;;;17.52;3.47;;;;;;;;;;5040703;28;20381;-66
2023/06/26 02:21:49;;;;;;;8.18;2.65;;;;;;;;;;5023709;28;20441;-65
2023/06/26 02:24:17;;;;;;;8.80;2.30;;;;;;;;;;5026429;28;20044;-66
2023/06/26 02:26:45;;;;;;;11.10;2.97;;;;;;;;;;5024589;28;20513;-65
2023/06/26 02:29:16;;;;;;;10.75;2.33;;;;;;;;;;5023777;28;20041;-65
2023/06/26 02:31:44;;;;;;;10.20;2.50;;;;;;;;;;5030695;28;20044;-67
2023/06/26 02:34:13;;;;;;;14.50;2.75;;;;;;;;;;5032187;28;20399;-66
2023/06/26 02:36:40;;;;;;;8.10;3.00;;;;;;;;;;5037943;28;20033;-67
2023/06/26 02:39:08;;;;;;;13.52;3.35;;;;;;;;;;5028197;28;20033;-67
2023/06/26 02:41:36;;;;;;;9.10;2.42;;;;;;;;;;5043233;28;20049;-66
2023/06/26 02:44:04;;;;;;;12.32;3.63;;;;;;;;;;5025937;28;20043;-67
2023/06/26 02:46:31;;;;;;;14.05;2.33;;;;;;;;;;5039739;28;20041;-67
2023/06/26 02:48:59;;;;;;;10.70;2.60;;;;;;;;;;5022709;28;21147;-66
2023/06/26 02:51:28;;;;;;;10.32;2.47;;;;;;;;;;5035641;28;20037;-59
2023/06/26 02:53:56;;;;;;;10.30;2.42;;;;;;;;;;5026749;28;20036;-66
2023/06/26 02:56:28;;;;;;;12.85;3.50;;;;;;;;;;5033986;28;20041;-67
2023/06/26 02:58:56;;;;;;;8.95;2.60;;;;;;;;;;5025033;28;20468;-67
2023/06/26 03:01:24;;;;;;;7.33;2.10;;;;;;;;;;5048183;28;20044;-66
2023/06/26 03:03:52;;;;;;;13.55;2.55;;;;;;;;;;5031951;28;20482;-66
2023/06/26 03:06:20;;;;;;;7.93;2.42;;;;;;;;;;5030295;28;20813;-67
2023/06/26 03:08:49;;;;;;;10.02;2.13;;;;;;;;;;5007268;28;20056;-65
2023/06/26 03:11:17;;;;;;;9.57;2.28;;;;;;;;;;5029317;28;20041;-66
2023/06/26 03:13:45;;;;;;;11.67;2.43;;;;;;;;;;5032867;28;20040;-66
2023/06/26 03:16:13;;;;;;;11.90;2.25;;;;;;;;;;5042632;28;20388;-67
2023/06/26 03:18:40;;;;;;;11.15;2.58;;;;;;;;;;5037453;28;20493;-66
2023/06/26 03:21:09;;;;;;;11.82;2.08;;;;;;;;;;5025611;28;20057;-67
2023/06/26 03:23:39;;;;;;;12.77;2.97;;;;;;;;;;5016205;28;20045;-67
2023/06/26 03:26:09;;;;;;;12.60;2.03;;;;;;;;;;5027995;28;20040;-66
2023/06/26 03:28:36;;;;;;;10.65;2.33;;;;;;;;;;5026440;28;20045;-66
2023/06/26 03:31:04;;;;;;;14.75;2.47;;;;;;;;;;5030594;28;20055;-66
2023/06/26 03:33:32;;;;;;;10.13;2.10;;;;;;;;;;5045129;28;20090;-66
2023/06/26 03:36:00;;;;;;;7.18;2.03;;;;;;;;;;5021924;28;20045;-66
2023/06/26 03:38:27;;;;;;;13.80;2.47;;;;;;;;;;5043212;28;20049;-66
2023/06/26 03:40:55;;;;;;;11.27;2.30;;;;;;;;;;5016964;28;21410;-67
2023/06/26 03:43:24;;;;;;;11.25;2.22;;;;;;;;;;5020416;28;20056;-66
2023/06/26 03:45:52;;;;;;;14.50;2.55;;;;;;;;;;5052582;28;20044;-66
2023/06/26 03:48:19;;;;;;;11.77;2.25;;;;;;;;;;5038904;28;20049;-66
2023/06/26 03:50:47;;;;;;;11.13;2.30;;;;;;;;;;5006963;28;20044;-61
2023/06/26 03:53:15;;;;;;;11.73;1.70;;;;;;;;;;5042870;28;20128;-66
2023/06/26 03:55:43;;;;;;;10.50;2.13;;;;;;;;;;5035577;28;20036;-66
2023/06/26 03:58:11;;;;;;;13.38;2.17;;;;;;;;;;5029823;28;20638;-66
2023/06/26 04:00:40;;;;;;;13.52;2.00;;;;;;;;;;5042605;28;20086;-66
2023/06/26 04:03:09;;;;;;;10.53;2.20;;;;;;;;;;5038383;28;20044;-65
2023/06/26 04:05:36;;;;;;;7.53;1.85;;;;;;;;;;5039362;28;20570;-66
2023/06/26 04:08:05;;;;;;;11.18;2.20;;;;;;;;;;5034816;28;20239;-66
2023/06/26 04:10:32;;;;;;;15.45;3.28;;;;;;;;;;5006851;28;20033;-66
2023/06/26 04:13:00;;;;;;;9.07;2.30;;;;;;;;;;5033177;28;20402;-66
2023/06/26 04:15:28;;;;;;;15.13;2.10;;;;;;;;;;5027995;28;20052;-66
2023/06/26 04:17:56;;;;;;;11.27;2.08;;;;;;;;;;5042904;28;20470;-66
2023/06/26 04:20:25;;;;;;;14.52;2.55;;;;;;;;;;5043949;28;20049;-67
2023/06/26 04:22:53;;;;;;;13.07;2.20;;;;;;;;;;5028748;28;20505;-65
2023/06/26 04:25:20;;;;;;;9.90;2.40;;;;;;;;;;5039568;28;20290;-66
2023/06/26 04:27:48;;;;;;;10.53;2.00;;;;;;;;;;5037688;28;20155;-67
2023/06/26 04:30:16;;;;;;;16.73;2.60;;;;;;;;;;5034443;28;20040;-66
2023/06/26 04:32:44;;;;;;;12.98;2.03;;;;;;;;;;5026354;28;20052;-66
2023/06/26 04:35:13;;;;;;;13.73;2.15;;;;;;;;;;5034091;28;20379;-66
2023/06/26 04:37:41;;;;;;;10.23;2.13;;;;;;;;;;5030705;28;20669;-66
2023/06/26 04:40:11;;;;;;;11.83;2.13;;;;;;;;;;5030828;28;20123;-68
2023/06/26 04:42:38;;;;;;;11.98;1.75;;;;;;;;;;5032087;28;20037;-66
2023/06/26 04:45:07;;;;;;;12.77;2.13;;;;;;;;;;5035325;28;20037;-66
2023/06/26 04:47:34;;;;;;;11.88;2.20;;;;;;;;;;5021186;28;20041;-66
2023/06/26 04:50:02;;;;;;;12.63;2.40;;;;;;;;;;5050734;28;20072;-66
2023/06/26 04:52:31;;;;;;;12.83;2.33;;;;;;;;;;5019504;28;20050;-66
2023/06/26 04:54:59;;;;;;;13.55;2.45;;;;;;;;;;5043029;28;20047;-65
2023/06/26 04:57:27;;;;;;;11.35;2.55;;;;;;;;;;5027020;28;20127;-65
2023/06/26 04:59:54;;;;;;;12.25;3.20;;;;;;;;;;5031922;28;20044;-66
2023/06/26 05:02:22;;;;;;;11.73;2.45;;;;;;;;;;5024392;28;20045;-65
2023/06/26 05:04:51;;;;;;;16.17;2.67;;;;;;;;;;5030236;28;20539;-66
2023/06/26 05:07:19;;;;;;;13.20;1.98;;;;;;;;;;5028701;28;20383;-66
2023/06/26 05:09:48;;;;;;;12.63;2.53;;;;;;;;;;5050004;28;20071;-58
2023/06/26 05:12:16;;;;;;;10.60;2.53;;;;;;;;;;5038469;28;20478;-66
2023/06/26 05:14:44;;;;;;;14.07;2.55;;;;;;;;;;5041237;28;20033;-66
2023/06/26 05:17:12;;;;;;;12.63;1.97;;;;;;;;;;5017117;28;20051;-66
2023/06/26 05:19:39;;;;;;;13.07;1.90;;;;;;;;;;5014415;28;20410;-66
2023/06/26 05:22:08;;;;;;;12.10;1.98;;;;;;;;;;5018847;28;20055;-60
2023/06/26 05:24:36;;;;;;;12.60;2.28;;;;;;;;;;5031670;28;20052;-66
2023/06/26 05:27:05;;;;;;;11.82;2.47;;;;;;;;;;5028630;28;20056;-65
2023/06/26 05:29:33;;;;;;;14.87;3.00;;;;;;;;;;5024388;28;20041;-66
2023/06/26 05:32:05;;;;;;;9.35;2.30;;;;;;;;;;5028875;28;20041;-65
2023/06/26 05:34:34;;;;;;;7.38;1.60;;;;;;;;;;5036915;28;20040;-66
2023/06/26 05:37:02;;;;;;;12.43;2.55;;;;;;;;;;5029688;28;20045;-66
2023/06/26 05:39:30;;;;;;;13.32;2.60;;;;;;;;;;5026894;28;20040;-66
2023/06/26 05:41:58;;;;;;;8.77;2.20;;;;;;;;;;5031386;28;20033;-67
2023/06/26 05:44:27;;;;;;;11.77;2.45;;;;;;;;;;5020953;28;20131;-66
2023/06/26 05:46:56;;;;;;;11.48;2.35;;;;;;;;;;5037763;28;20048;-66
2023/06/26 05:49:24;;;;;;;9.15;2.35;;;;;;;;;;5027913;28;20487;-66
2023/06/26 05:51:52;;;;;;;9.63;2.30;;;;;;;;;;5026862;28;20033;-66
2023/06/26 05:54:20;;;;;;;11.33;2.53;;;;;;;;;;5036923;28;20055;-67
2023/06/26 05:56:49;;;;;;;9.00;2.00;;;;;;;;;;5023719;28;20581;-64
2023/06/26 05:59:18;;;;;;;14.63;2.42;;;;;;;;;;5035684;28;20055;-66
2023/06/26 06:01:47;;;;;;;8.50;1.70;;;;;;;;;;5027291;28;20045;-66
2023/06/26 06:04:15;;;;;;;22.48;2.50;;;;;;;;;;5031841;28;20497;-65
2023/06/26 06:06:42;;;;;;;16.43;2.57;;;;;;;;;;5031754;28;20076;-66
2023/06/26 06:09:10;;;;;;;10.57;1.85;;;;;;;;;;5040887;28;20043;-66
2023/06/26 06:11:38;;;;;;;21.85;2.63;;;;;;;;;;5024782;28;20036;-65
2023/06/26 06:14:06;;;;;;;10.68;1.95;;;;;;;;;;5043613;28;20749;-66
2023/06/26 06:16:34;;;;;;;8.52;2.63;;;;;;;;;;5036953;28;20098;-66
2023/06/26 06:19:03;;;;;;;9.00;2.13;;;;;;;;;;5018099;28;20033;-65
2023/06/26 06:21:31;;;;;;;9.95;2.38;;;;;;;;;;5031239;28;20072;-66
2023/06/26 06:24:01;;;;;;;9.10;2.17;;;;;;;;;;5033869;28;20037;-66
2023/06/26 06:26:28;;;;;;;11.15;2.00;;;;;;;;;;5023599;28;20045;-65
2023/06/26 06:28:56;;;;;;;8.38;1.95;;;;;;;;;;5015420;28;20037;-65
2023/06/26 06:31:27;;;;;;;7.93;1.93;;;;;;;;;;5021619;28;20041;-66
2023/06/26 06:33:54;;;;;;;7.50;1.85;;;;;;;;;;5024460;28;20071;-65
2023/06/26 06:36:23;;;;;;;12.25;2.15;;;;;;;;;;5017509;28;20057;-65
2023/06/26 06:38:51;;;;;;;9.55;2.05;;;;;;;;;;5039352;28;20051;-68
2023/06/26 06:41:19;;;;;;;8.40;2.53;;;;;;;;;;4998842;28;20045;-66
2023/06/26 06:43:47;;;;;;;7.00;1.70;;;;;;;;;;5033112;28;20114;-61
2023/06/26 06:46:15;;;;;;;11.15;1.60;;;;;;;;;;5035868;28;20143;-66
2023/06/26 06:48:43;;;;;;;9.32;1.90;;;;;;;;;;5045369;28;20055;-65
2023/06/26 06:51:13;;;;;;;9.20;1.90;;;;;;;;;;5027018;28;20376;-66
2023/06/26 06:53:44;;;;;;;7.38;1.83;;;;;;;;;;5036534;28;20263;-66
2023/06/26 06:56:12;;;;;;;8.67;2.17;;;;;;;;;;5047076;28;20036;-66
2023/06/26 06:58:42;;;;;;;7.32;1.85;;;;;;;;;;5036084;28;20152;-66
2023/06/26 07:01:10;;;;;;;7.10;1.38;;;;;;;;;;5013255;28;20052;-65
2023/06/26 07:03:38;;;;;;;8.93;1.70;;;;;;;;;;5047117;28;20229;-66
2023/06/26 07:06:06;;;;;;;9.07;1.88;;;;;;;;;;5027335;28;20045;-66
2023/06/26 07:08:34;;;;;;;6.67;1.57;;;;;;;;;;5032922;28;20584;-66
2023/06/26 07:11:03;;;;;;;9.40;1.77;;;;;;;;;;5032842;28;20094;-65
2023/06/26 07:13:33;;;;;;;5.88;1.80;;;;;;;;;;5026904;28;20045;-66
2023/06/26 07:16:00;;;;;;;7.43;1.35;;;;;;;;;;5030276;28;20039;-66
2023/06/26 07:18:30;;;;;;;5.03;1.23;;;;;;;;;;5033085;28;20037;-66
2023/06/26 07:20:59;;;;;;;7.83;1.83;;;;;;;;;;5035556;28;20033;-66
2023/06/26 07:23:26;;;;;;;7.88;1.80;;;;;;;;;;5024455;28;20045;-66
2023/06/26 07:25:55;;;;;;;6.05;1.00;;;;;;;;;;5048893;28;20045;-66
2023/06/26 07:28:24;;;;;;;6.18;1.38;;;;;;;;;;5033099;28;20040;-67
2023/06/26 07:30:51;;;;;;;6.20;1.38;;;;;;;;;;5051998;28;20209;-66
2023/06/26 07:33:20;;;;;;;6.77;1.30;;;;;;;;;;5008127;28;20817;-67
2023/06/26 07:35:51;;;;;;;7.32;1.50;;;;;;;;;;5043995;28;20502;-66
2023/06/26 07:38:19;;;;;;;8.10;1.75;;;;;;;;;;5037382;28;20167;-65
2023/06/26 07:40:47;;;;;;;8.73;1.60;;;;;;;;;;5040091;28;20505;-63
2023/06/26 07:43:15;;;;;;;5.50;1.48;;;;;;;;;;5047059;28;20044;-66
2023/06/26 07:45:44;;;;;;;7.33;1.50;;;;;;;;;;5013607;28;20487;-66
2023/06/26 07:48:12;;;;;;;9.38;1.73;;;;;;;;;;5034307;28;20037;-67
2023/06/26 07:50:40;;;;;;;7.15;1.77;;;;;;;;;;5004691;28;20036;-66
2023/06/26 07:53:08;;;;;;;6.00;1.30;;;;;;;;;;5035646;28;20055;-66
2023/06/26 07:55:36;;;;;;;5.20;1.80;;;;;;;;;;5010437;28;20028;-66
2023/06/26 07:58:04;;;;;;;7.73;1.40;;;;;;;;;;5040796;28;20049;-66
2023/06/26 08:00:36;;;;;;;7.50;1.50;;;;;;;;;;5033481;28;20119;-66
2023/06/26 08:03:05;;;;;;;8.00;1.58;;;;;;;;;;5032467;28;20127;-67
2023/06/26 08:05:39;;;;;;;7.20;1.48;;;;;;;;;;5027769;28;20059;-67
2023/06/26 08:08:07;;;;;;;7.72;1.80;;;;;;;;;;5034192;28;20045;-65
2023/06/26 08:10:34;;;;;;;8.33;1.60;;;;;;;;;;5031079;28;20041;-65
2023/06/26 08:13:02;;;;;;;6.72;1.10;;;;;;;;;;5042203;28;20036;-65
2023/06/26 08:15:31;;;;;;;7.75;1.42;;;;;;;;;;5027601;28;20135;-65
2023/06/26 08:17:59;;;;;;;4.10;1.05;;;;;;;;;;5029660;28;20185;-65
2023/06/26 08:20:29;;;;;;;4.95;1.35;;;;;;;;;;5035055;28;20053;-66
2023/06/26 08:22:58;;;;;;;5.87;1.20;;;;;;;;;;5045170;28;20067;-65
2023/06/26 08:25:25;;;;;;;6.35;1.20;;;;;;;;;;5021497;28;20051;-66
2023/06/26 08:27:55;;;;;;;7.28;1.52;;;;;;;;;;5025073;28;20475;-66
2023/06/26 08:30:27;;;;;;;5.53;1.25;;;;;;;;;;5007243;28;20045;-65
2023/06/26 08:32:55;;;;;;;9.13;1.73;;;;;;;;;;5009284;28;20039;-65
2023/06/26 08:35:24;;;;;;;6.67;1.60;;;;;;;;;;5009567;28;20107;-65
2023/06/26 08:37:54;;;;;;;5.00;1.60;;;;;;;;;;4999202;28;20048;-65
2023/06/26 08:40:22;;;;;;;6.47;1.60;;;;;;;;;;5002296;28;20045;-66
2023/06/26 08:42:52;;;;;;;7.60;1.70;;;;;;;;;;4999542;28;20029;-65
2023/06/26 08:45:21;;;;;;;6.57;1.73;;;;;;;;;;5006766;28;20041;-64
2023/06/26 08:47:52;;;;;;;8.03;1.63;;;;;;;;;;5005934;28;20045;-65
2023/06/26 08:50:21;;;;;;;8.70;1.60;;;;;;;;;;4994916;28;20158;-67
2023/06/26 08:52:54;;;;;;;5.18;1.40;;;;;;;;;;5015677;28;20052;-67
2023/06/26 08:55:24;;;;;;;11.48;1.85;;;;;;;;;;5000812;28;20040;-66
2023/06/26 08:57:53;;;;;;;6.70;1.58;;;;;;;;;;5015484;28;20068;-67
2023/06/26 09:00:21;;;;;;;8.40;2.33;;;;;;;;;;5019487;28;20059;-66
2023/06/26 09:02:49;;;;;;;5.05;1.38;;;;;;;;;;5009902;28;20045;-67
2023/06/26 09:05:17;;;;;;;5.20;1.48;;;;;;;;;;5015565;28;20037;-67
2023/06/26 09:07:44;;;;;;;7.53;1.75;;;;;;;;;;4982301;28;20526;-67
2023/06/26 09:10:12;;;;;;;7.15;1.60;;;;;;;;;;5005035;28;20678;-67
2023/06/26 09:12:41;;;;;;;7.63;1.60;;;;;;;;;;4990163;28;20608;-66
2023/06/26 09:15:09;;;;;;;4.85;1.15;;;;;;;;;;5004043;28;20137;-67
2023/06/26 09:17:41;;;;;;;6.63;1.42;;;;;;;;;;5012917;28;20415;-67
2023/06/26 09:20:10;;;;;;;6.00;1.55;;;;;;;;;;4999671;28;20169;-67
2023/06/26 09:22:39;;;;;;;9.25;1.40;;;;;;;;;;5001130;28;20037;-65
2023/06/26 09:25:07;;;;;;;11.57;2.00;;;;;;;;;;5002330;28;20097;-66
2023/06/26 09:27:34;;;;;;;5.47;1.20;;;;;;;;;;5003054;28;20052;-65
2023/06/26 09:30:06;;;;;;;5.78;1.13;;;;;;;;;;4996595;28;20045;-65
2023/06/26 09:32:35;;;;;;;9.75;1.52;;;;;;;;;;5017953;28;20782;-66
2023/06/26 09:35:03;;;;;;;6.00;1.23;;;;;;;;;;5001648;28;20527;-66
2023/06/26 09:37:31;;;;;;;6.67;1.67;;;;;;;;;;5010209;28;20060;-66
2023/06/26 09:39:59;;;;;;;6.18;1.70;;;;;;;;;;5008057;28;20562;-65
2023/06/26 09:42:27;;;;;;;5.43;1.80;;;;;;;;;;5015732;28;20495;-65
2023/06/26 09:44:55;;;;;;;7.43;1.63;;;;;;;;;;5006688;28;20120;-65
2023/06/26 09:47:25;;;;;;;7.50;1.50;;;;;;;;;;5019553;28;20052;-66
2023/06/26 09:49:54;;;;;;;5.57;1.17;;;;;;;;;;5006825;28;20466;-66
2023/06/26 09:52:23;;;;;;;7.22;2.15;;;;;;;;;;5003973;28;20392;-66
2023/06/26 09:54:51;;;;;;;7.03;1.42;;;;;;;;;;5017513;28;20135;-65
2023/06/26 09:57:20;;;;;;;7.60;1.80;;;;;;;;;;4997560;28;20377;-65
2023/06/26 09:59:48;;;;;;;7.65;1.83;;;;;;;;;;5010570;28;20060;-64
2023/06/26 10:02:16;;;;;;;6.73;1.63;;;;;;;;;;5001733;28;20072;-65
2023/06/26 10:04:46;;;;;;;5.40;1.67;;;;;;;;;;5011952;28;20037;-65
2023/06/26 10:07:14;;;;;;;6.88;1.67;;;;;;;;;;5009541;28;20136;-66
2023/06/26 10:09:42;;;;;;;6.13;1.70;;;;;;;;;;5030325;28;20082;-65
2023/06/26 10:12:15;;;;;;;10.93;1.90;;;;;;;;;;5008215;28;20924;-65
2023/06/26 10:14:43;;;;;;;6.30;1.63;;;;;;;;;;5033068;28;20038;-65
2023/06/26 10:17:20;;;;;;;8.70;2.15;;;;;;;;;;5022154;28;20044;-65
2023/06/26 10:19:51;;;;;;;6.05;1.75;;;;;;;;;;5033411;28;20495;-63
2023/06/26 10:22:19;;;;;;;7.43;1.33;;;;;;;;;;5041114;28;20302;-65
2023/06/26 10:24:48;;;;;;;7.28;1.58;;;;;;;;;;5035522;28;20464;-65
2023/06/26 10:27:17;;;;;;;4.83;1.50;;;;;;;;;;5020207;28;20047;-65
2023/06/26 10:29:49;;;;;;;7.25;1.65;;;;;;;;;;5032776;28;20037;-65
2023/06/26 10:32:18;;;;;;;5.90;1.70;;;;;;;;;;5040184;28;20038;-66
2023/06/26 10:34:45;;;;;;;5.47;1.48;;;;;;;;;;5019399;28;20051;-66
2023/06/26 10:37:15;;;;;;;7.03;1.60;;;;;;;;;;5044579;28;20036;-66
2023/06/26 10:39:50;;;;;;;7.27;2.20;;;;;;;;;;5039783;28;20048;-66
2023/06/26 10:42:18;;;;;;;5.78;1.40;;;;;;;;;;5024367;28;20048;-64
2023/06/26 10:44:47;;;;;;;4.25;1.63;;;;;;;;;;5038094;28;20055;-66
2023/06/26 10:47:29;;;;;;;6.15;1.70;;;;;;;;;;5008515;28;20111;-66
2023/06/26 10:49:58;;;;;;;6.38;1.70;;;;;;;;;;5034270;28;20061;-66
2023/06/26 10:52:42;;;;;;;7.13;1.80;;;;;;;;;;5030993;28;20433;-66
2023/06/26 10:55:10;;;;;;;9.43;2.00;;;;;;;;;;5032230;28;20040;-65
2023/06/26 10:57:39;;;;;;;6.50;1.73;;;;;;;;;;5024048;28;20049;-65
2023/06/26 11:00:11;;;;;;;8.95;2.05;;;;;;;;;;5033469;28;20040;-66
2023/06/26 11:02:51;;;;;;;7.82;1.85;;;;;;;;;;5032195;28;20372;-66
2023/06/26 11:05:30;;;;;;;5.43;1.20;;;;;;;;;;5046994;28;20055;-66
2023/06/26 11:08:05;;;;;;;6.40;1.48;;;;;;;;;;5030335;28;20032;-66
2023/06/26 11:10:52;;;;;;;7.05;1.83;;;;;;;;;;5028738;28;21300;-66
2023/06/26 11:13:21;;;;;;;7.15;1.80;;;;;;;;;;5041542;28;20037;-65
2023/06/26 11:15:51;;;;;;;5.82;1.58;;;;;;;;;;5029765;28;20146;-66
2023/06/26 11:18:19;;;;;;;6.33;1.90;;;;;;;;;;5017759;28;20775;-66
2023/06/26 11:20:47;;;;;;;5.07;1.63;;;;;;;;;;5022884;28;20047;-62
2023/06/26 11:23:21;;;;;;;6.20;1.75;;;;;;;;;;5040206;28;20036;-68
2023/06/26 11:25:50;;;;;;;5.97;1.50;;;;;;;;;;5041076;28;20485;-67
2023/06/26 11:28:18;;;;;;;7.22;1.60;;;;;;;;;;5022633;28;20044;-67
2023/06/26 11:30:45;;;;;;;6.40;1.60;;;;;;;;;;4990553;28;20045;-67
2023/06/26 11:33:13;;;;;;;5.15;1.42;;;;;;;;;;5028021;28;20051;-67
2023/06/26 11:35:41;;;;;;;6.28;1.60;;;;;;;;;;5044619;28;20045;-67
2023/06/26 11:38:09;;;;;;;7.40;1.90;;;;;;;;;;5020862;28;20033;-66
2023/06/26 11:40:38;;;;;;;8.23;1.45;;;;;;;;;;5028189;28;20051;-65
2023/06/26 11:43:07;;;;;;;4.30;1.30;;;;;;;;;;5026413;28;20053;-66
2023/06/26 11:45:40;;;;;;;9.23;1.48;;;;;;;;;;5026763;28;20057;-65
2023/06/26 11:48:08;;;;;;;6.13;1.60;;;;;;;;;;5033151;28;20128;-62
2023/06/26 11:50:38;;;;;;;7.57;1.73;;;;;;;;;;5025961;28;20523;-66
2023/06/26 11:53:07;;;;;;;6.65;1.83;;;;;;;;;;5037428;28;20658;-66
2023/06/26 11:55:43;;;;;;;8.43;1.70;;;;;;;;;;5034704;28;20438;-67
2023/06/26 11:58:10;;;;;;;7.75;2.15;;;;;;;;;;5026443;28;20394;-67
2023/06/26 12:00:43;;;;;;;7.32;1.50;;;;;;;;;;5028060;28;20049;-66
2023/06/26 12:03:11;;;;;;;7.97;2.33;;;;;;;;;;5039081;28;20051;-67
2023/06/26 12:05:39;;;;;;;4.97;1.40;;;;;;;;;;5042023;28;20041;-67
2023/06/26 12:08:08;;;;;;;7.30;1.70;;;;;;;;;;5024698;28;20671;-63
2023/06/26 12:10:54;;;;;;;5.78;1.42;;;;;;;;;;5038507;28;20047;-66
2023/06/26 12:13:23;;;;;;;6.53;2.25;;;;;;;;;;5040643;28;20028;-66
2023/06/26 12:15:50;;;;;;;6.63;1.80;;;;;;;;;;5033939;28;20044;-66
2023/06/26 12:18:20;;;;;;;7.00;2.00;;;;;;;;;;5011593;28;20800;-66
2023/06/26 12:20:48;;;;;;;8.00;1.60;;;;;;;;;;5037506;28;20048;-66
2023/06/26 12:23:16;;;;;;;5.90;1.33;;;;;;;;;;5026781;28;20054;-66
2023/06/26 12:25:44;;;;;;;4.90;1.58;;;;;;;;;;5034991;28;20123;-66
2023/06/26 12:28:21;;;;;;;8.70;1.80;;;;;;;;;;5029260;28;20044;-66
2023/06/26 12:31:04;;;;;;;6.95;1.45;;;;;;;;;;5030684;28;20037;-65
2023/06/26 12:33:32;;;;;;;5.93;1.90;;;;;;;;;;5019772;28;20233;-66
2023/06/26 12:36:01;;;;;;;5.55;1.50;;;;;;;;;;5027362;28;20120;-66
2023/06/26 12:38:33;;;;;;;6.78;1.60;;;;;;;;;;5034304;28;20076;-69
2023/06/26 12:41:01;;;;;;;6.07;1.50;;;;;;;;;;5018130;28;20071;-66
2023/06/26 12:43:30;;;;;;;6.05;1.40;;;;;;;;;;5046380;28;20561;-65
2023/06/26 12:45:58;;;;;;;5.83;1.37;;;;;;;;;;5021263;28;20040;-66
2023/06/26 12:48:37;;;;;;;8.68;2.20;;;;;;;;;;5030329;28;20151;-66
2023/06/26 12:51:15;;;;;;;5.30;1.30;;;;;;;;;;5025101;28;20041;-66
2023/06/26 12:53:43;;;;;;;6.90;1.65;;;;;;;;;;5029548;28;20041;-66
2023/06/26 12:56:11;;;;;;;5.22;1.65;;;;;;;;;;5035258;28;20028;-66
2023/06/26 12:58:40;;;;;;;5.00;1.63;;;;;;;;;;5032710;28;20060;-66
2023/06/26 13:01:14;;;;;;;5.68;1.70;;;;;;;;;;5032740;28;20453;-64
2023/06/26 13:03:42;;;;;;;5.22;1.70;;;;;;;;;;5044223;28;20044;-66
2023/06/26 13:06:12;;;;;;;6.15;1.67;;;;;;;;;;5029673;28;20550;-66
2023/06/26 13:08:40;;;;;;;6.47;2.10;;;;;;;;;;5009609;28;20048;-66
2023/06/26 13:11:08;;;;;;;6.50;1.80;;;;;;;;;;5031721;28;20045;-65
2023/06/26 13:13:36;;;;;;;6.15;1.75;;;;;;;;;;5009282;28;20508;-65
2023/06/26 13:16:05;;;;;;;5.47;1.92;;;;;;;;;;5029998;28;20852;-65
2023/06/26 13:18:38;;;;;;;5.47;1.55;;;;;;;;;;5027479;28;20119;-66
2023/06/26 13:21:05;;;;;;;6.47;1.67;;;;;;;;;;5023949;28;20076;-66
2023/06/26 13:23:33;;;;;;;6.90;1.17;;;;;;;;;;5031036;28;20036;-65
2023/06/26 13:26:01;;;;;;;5.82;1.48;;;;;;;;;;5030920;28;20058;-65
2023/06/26 13:28:30;;;;;;;4.88;1.45;;;;;;;;;;5018452;28;21256;-65
2023/06/26 13:30:58;;;;;;;4.70;1.38;;;;;;;;;;5044958;28;20039;-66
2023/06/26 13:33:27;;;;;;;7.10;1.30;;;;;;;;;;4994237;28;20633;-65
2023/06/26 13:35:55;;;;;;;5.63;1.60;;;;;;;;;;5034787;28;20045;-66
2023/06/26 13:38:25;;;;;;;8.00;1.58;;;;;;;;;;5018328;28;20060;-65
2023/06/26 13:40:53;;;;;;;5.93;1.92;;;;;;;;;;5034319;28;20043;-65
2023/06/26 13:43:21;;;;;;;5.80;1.38;;;;;;;;;;5034842;28;20110;-65
2023/06/26 13:45:49;;;;;;;5.63;1.77;;;;;;;;;;5030751;28;20048;-64
2023/06/26 13:48:17;;;;;;;6.13;1.50;;;;;;;;;;5013088;28;20041;-65
2023/06/26 13:50:48;;;;;;;7.15;1.38;;;;;;;;;;5026793;28;20071;-64
2023/06/26 13:53:21;;;;;;;6.63;1.77;;;;;;;;;;5032325;28;20064;-65
2023/06/26 13:55:49;;;;;;;7.53;2.10;;;;;;;;;;5028249;28;20755;-64
2023/06/26 13:58:19;;;;;;;6.85;1.85;;;;;;;;;;5030552;28;20064;-65
2023/06/26 14:00:46;;;;;;;6.37;1.77;;;;;;;;;;5004084;28;20541;-64
2023/06/26 14:03:18;;;;;;;5.72;1.20;;;;;;;;;;5020315;28;20083;-64
2023/06/26 14:05:47;;;;;;;4.40;1.33;;;;;;;;;;5004304;28;20051;-64
2023/06/26 14:08:15;;;;;;;10.13;1.67;;;;;;;;;;5035662;28;20056;-65
2023/06/26 14:10:43;;;;;;;7.03;1.80;;;;;;;;;;5024197;28;20594;-64
2023/06/26 14:13:15;;;;;;;5.70;1.70;;;;;;;;;;5029467;28;20556;-64
2023/06/26 14:15:43;;;;;;;6.90;1.42;;;;;;;;;;5036652;28;20049;-64
2023/06/26 14:18:11;;;;;;;7.65;1.58;;;;;;;;;;5041675;28;20128;-66
2023/06/26 14:20:39;;;;;;;8.43;1.70;;;;;;;;;;5023759;28;20566;-64
2023/06/26 14:23:09;;;;;;;10.27;1.90;;;;;;;;;;5040003;28;20503;-64
2023/06/26 14:25:37;;;;;;;6.57;1.90;;;;;;;;;;5038241;28;20414;-64
2023/06/26 14:28:05;;;;;;;8.82;2.20;;;;;;;;;;5037703;28;20045;-66
2023/06/26 14:30:50;;;;;;;6.50;1.70;;;;;;;;;;5034100;28;20670;-64
2023/06/26 14:33:18;;;;;;;6.28;1.45;;;;;;;;;;5027397;28;20523;-64
2023/06/26 14:35:47;;;;;;;8.63;2.00;;;;;;;;;;5018674;28;20835;-65
2023/06/26 14:38:17;;;;;;;7.27;1.77;;;;;;;;;;5036993;28;20119;-65
2023/06/26 14:40:44;;;;;;;12.20;2.15;;;;;;;;;;5022861;28;20044;-65
2023/06/26 14:43:13;;;;;;;6.88;1.70;;;;;;;;;;5027249;28;20127;-65
2023/06/26 14:45:42;;;;;;;6.18;1.73;;;;;;;;;;5014703;28;20037;-65
2023/06/26 14:48:11;;;;;;;6.97;1.40;;;;;;;;;;5037024;28;20463;-65